Time;durP1;ratioP1;P1;durP2;ratioP2;P2;SDS_P1;SDS_P2;PMS_P1;PMS_P2;Temp;Humidity;BMP_temperature;BMP_pressure;BME280_temperature;BME280_humidity;BME280_pressure;Samples;Min_cycle;Max_cycle;Signal;HPM_P1;HPM_P2
2021/12/01 00:01:08;;;;;;;17.25;8.98;;;;;;;9.37;100.00;99828.25;5092151;28;20042;-80
2021/12/01 00:03:34;;;;;;;16.63;8.20;;;;;;;9.42;100.00;99821.41;5092992;28;20048;-80
2021/12/01 00:05:59;;;;;;;13.40;6.50;;;;;;;9.46;100.00;99794.31;5091517;28;20051;-81
2021/12/01 00:08:25;;;;;;;12.18;6.43;;;;;;;9.51;100.00;99803.22;5091737;28;20043;-82
2021/12/01 00:10:51;;;;;;;11.93;5.63;;;;;;;9.57;100.00;99784.97;5092333;28;20036;-80
2021/12/01 00:13:20;;;;;;;10.27;4.97;;;;;;;9.55;100.00;99776.13;5093481;28;20113;-80
2021/12/01 00:15:47;;;;;;;11.50;5.03;;;;;;;9.59;100.00;99769.22;5093464;28;20047;-82
2021/12/01 00:18:12;;;;;;;12.38;4.57;;;;;;;9.66;100.00;99756.25;5093131;28;20035;-82
2021/12/01 00:20:43;;;;;;;11.55;5.03;;;;;;;9.64;100.00;99749.19;5094646;28;20066;-81
2021/12/01 00:23:09;;;;;;;10.57;5.00;;;;;;;9.63;100.00;99734.25;5094684;28;20118;-82
2021/12/01 00:25:39;;;;;;;12.65;5.07;;;;;;;9.61;100.00;99717.56;5092919;28;20048;-81
2021/12/01 00:28:05;;;;;;;10.30;4.80;;;;;;;9.58;100.00;99728.91;5092870;28;20101;-82
2021/12/01 00:30:30;;;;;;;10.05;4.55;;;;;;;9.64;100.00;99715.00;5091084;28;20047;-81
2021/12/01 00:32:56;;;;;;;8.00;4.00;;;;;;;9.60;100.00;99715.78;5093104;28;20128;-81
2021/12/01 00:35:22;;;;;;;11.20;3.97;;;;;;;9.60;100.00;99700.94;5093042;28;20040;-81
2021/12/01 00:37:47;;;;;;;8.63;4.38;;;;;;;9.60;100.00;99697.41;5093551;28;20086;-81
2021/12/01 00:40:14;;;;;;;7.60;3.58;;;;;;;9.59;100.00;99693.00;5092958;28;20086;-84
2021/12/01 00:42:40;;;;;;;11.20;4.30;;;;;;;9.60;100.00;99685.16;5094108;28;20051;-83
2021/12/01 00:45:12;;;;;;;7.20;3.72;;;;;;;9.56;100.00;99679.81;5092464;28;20040;-82
2021/12/01 00:47:46;;;;;;;7.50;4.03;;;;;;;9.55;100.00;99681.53;5093726;28;20073;-82
2021/12/01 00:50:18;;;;;;;8.85;3.95;;;;;;;9.52;100.00;99665.69;5093306;28;20039;-82
2021/12/01 00:52:43;;;;;;;6.55;4.10;;;;;;;9.53;100.00;99673.59;5093218;28;20044;-81
2021/12/01 00:55:09;;;;;;;8.77;5.00;;;;;;;9.56;100.00;99674.56;5094019;28;20119;-83
2021/12/01 00:57:35;;;;;;;10.15;5.95;;;;;;;9.52;100.00;99660.44;5093690;28;20036;-81
2021/12/01 01:00:04;;;;;;;11.30;6.13;;;;;;;9.48;100.00;99648.09;5092631;28;20067;-81
2021/12/01 01:02:29;;;;;;;10.63;6.28;;;;;;;9.49;100.00;99641.97;5093315;28;20679;-81
2021/12/01 01:04:54;;;;;;;8.43;4.93;;;;;;;9.47;100.00;99636.69;5091964;28;20044;-80
2021/12/01 01:07:20;;;;;;;7.50;4.45;;;;;;;9.48;100.00;99642.84;5093035;28;20043;-80
2021/12/01 01:09:45;;;;;;;6.28;3.80;;;;;;;9.47;100.00;99638.44;5092930;28;20536;-81
2021/12/01 01:17:45;;;;;;;7.68;4.00;;;;;;;9.46;100.00;99624.44;5094419;28;20537;-80
2021/12/01 01:20:18;;;;;;;6.57;3.55;;;;;;;9.46;100.00;99597.25;5092988;28;20048;-82
2021/12/01 01:22:44;;;;;;;9.25;3.80;;;;;;;9.49;100.00;99600.84;5092822;28;20048;-79
2021/12/01 01:25:10;;;;;;;6.63;3.60;;;;;;;9.49;100.00;99595.59;5092395;28;20036;-81
2021/12/01 01:27:35;;;;;;;7.82;3.58;;;;;;;9.49;100.00;99587.69;5092697;28;20059;-81
2021/12/01 01:30:03;;;;;;;7.85;3.53;;;;;;;9.51;100.00;99566.72;5092693;28;20044;-80
2021/12/01 01:32:33;;;;;;;7.75;3.78;;;;;;;9.50;100.00;99584.19;5094503;28;20040;-80
2021/12/01 01:34:58;;;;;;;7.35;4.22;;;;;;;9.52;100.00;99576.34;5092573;28;20119;-81
2021/12/01 01:37:28;;;;;;;7.05;3.55;;;;;;;9.52;100.00;99558.84;5092736;28;20068;-84
2021/12/01 01:39:54;;;;;;;5.50;3.08;;;;;;;9.48;100.00;99585.03;5092774;28;20040;-81
2021/12/01 01:42:21;;;;;;;7.20;3.00;;;;;;;9.47;100.00;99564.88;5092782;28;20050;-81
2021/12/01 01:44:47;;;;;;;7.22;2.90;;;;;;;9.41;100.00;99564.75;5092938;28;20097;-80
2021/12/01 01:47:12;;;;;;;5.15;2.50;;;;;;;9.38;100.00;99555.03;5092368;28;20040;-82
2021/12/01 01:49:48;;;;;;;5.68;2.00;;;;;;;9.40;100.00;99531.44;5093795;28;20480;-82
2021/12/01 01:52:15;;;;;;;7.32;2.50;;;;;;;9.43;100.00;99519.25;5092483;28;20040;-82
2021/12/01 01:54:41;;;;;;;5.57;2.42;;;;;;;9.42;100.00;99506.97;5091652;28;20044;-81
2021/12/01 01:57:06;;;;;;;7.65;2.08;;;;;;;9.41;100.00;99488.56;5095745;28;20548;-80
2021/12/01 01:59:32;;;;;;;3.83;1.63;;;;;;;9.41;100.00;99494.69;5095982;28;20040;-81
2021/12/01 02:02:07;;;;;;;6.70;2.08;;;;;;;9.33;100.00;99491.91;5096204;28;20051;-82
2021/12/01 02:04:33;;;;;;;4.45;1.60;;;;;;;9.26;100.00;99487.41;5097125;28;20040;-80
2021/12/01 02:07:01;;;;;;;4.13;1.48;;;;;;;9.24;100.00;99488.22;5096014;28;20043;-81
2021/12/01 02:09:27;;;;;;;4.65;1.90;;;;;;;9.19;100.00;99505.66;5096470;28;20036;-82
2021/12/01 02:11:59;;;;;;;4.22;1.63;;;;;;;9.15;100.00;99481.03;5095726;28;20123;-81
2021/12/01 02:14:26;;;;;;;3.10;1.65;;;;;;;9.13;100.00;99474.88;5096366;28;20097;-80
2021/12/01 02:16:53;;;;;;;3.42;1.58;;;;;;;9.08;100.00;99445.03;5096123;28;20120;-80
2021/12/01 02:19:19;;;;;;;4.55;1.80;;;;;;;9.09;100.00;99455.56;5095705;28;20138;-80
2021/12/01 02:21:46;;;;;;;5.65;1.67;;;;;;;9.08;100.00;99442.41;5096074;28;20051;-81
2021/12/01 02:24:14;;;;;;;3.47;2.05;;;;;;;9.09;100.00;99428.41;5095732;28;20048;-81
2021/12/01 02:26:45;;;;;;;3.80;1.58;;;;;;;9.07;100.00;99430.13;5097162;28;20043;-80
2021/12/01 02:29:13;;;;;;;5.20;1.85;;;;;;;9.06;100.00;99415.22;5095720;28;20073;-82
2021/12/01 02:31:41;;;;;;;3.63;1.92;;;;;;;9.09;100.00;99410.91;5096020;28;20117;-80
2021/12/01 02:34:10;;;;;;;4.65;2.15;;;;;;;9.06;100.00;99407.31;5096634;28;20044;-80
2021/12/01 02:36:36;;;;;;;4.55;2.63;;;;;;;9.05;100.00;99405.59;5095878;28;20070;-80
2021/12/01 02:39:09;;;;;;;4.22;2.50;;;;;;;9.05;100.00;99402.97;5095003;28;20051;-82
2021/12/01 02:41:43;;;;;;;5.15;2.63;;;;;;;9.02;100.00;99401.16;5095442;28;20044;-82
2021/12/01 02:44:11;;;;;;;4.68;2.35;;;;;;;9.01;100.00;99381.00;5093056;28;20055;-81
2021/12/01 02:46:37;;;;;;;4.20;2.30;;;;;;;8.96;100.00;99378.31;5094744;28;20559;-81
2021/12/01 02:49:03;;;;;;;4.90;2.65;;;;;;;8.94;100.00;99374.75;5095022;28;20078;-82
2021/12/01 02:51:38;;;;;;;4.38;2.58;;;;;;;8.94;100.00;99377.38;5095402;28;20388;-80
2021/12/01 02:54:06;;;;;;;4.00;2.40;;;;;;;8.88;100.00;99360.63;5094854;28;20493;-81
2021/12/01 02:56:33;;;;;;;4.63;2.88;;;;;;;8.81;100.00;99359.63;5095652;28;20058;-80
2021/12/01 02:59:01;;;;;;;5.40;2.70;;;;;;;8.83;100.00;99352.66;5095043;28;20047;-82
2021/12/01 03:01:28;;;;;;;5.10;2.40;;;;;;;8.83;100.00;99338.66;5094948;28;20543;-81
2021/12/01 03:03:54;;;;;;;4.18;2.47;;;;;;;8.77;100.00;99337.69;5095215;28;20047;-81
2021/12/01 03:06:24;;;;;;;7.15;2.78;;;;;;;8.76;100.00;99335.94;5094889;28;20044;-81
2021/12/01 03:08:50;;;;;;;4.38;2.45;;;;;;;8.76;100.00;99320.19;5094472;28;20415;-80
2021/12/01 03:11:19;;;;;;;4.05;2.35;;;;;;;8.73;100.00;99311.34;5094685;28;20035;-81
2021/12/01 03:13:44;;;;;;;4.07;2.28;;;;;;;8.71;100.00;99292.94;5094798;28;20066;-80
2021/12/01 03:16:10;;;;;;;4.20;2.30;;;;;;;8.71;100.00;99285.06;5094235;28;20126;-81
2021/12/01 03:18:36;;;;;;;4.13;2.17;;;;;;;8.71;100.00;99284.19;5094954;28;20118;-80
2021/12/01 03:21:12;;;;;;;5.07;2.53;;;;;;;8.68;100.00;99271.88;5095634;28;20720;-79
2021/12/01 03:23:39;;;;;;;5.28;2.75;;;;;;;8.66;100.00;99260.50;5094750;28;20089;-79
2021/12/01 03:26:05;;;;;;;6.25;2.90;;;;;;;8.67;100.00;99261.38;5096400;28;20044;-80
2021/12/01 03:28:30;;;;;;;5.35;3.20;;;;;;;8.65;100.00;99236.84;5094512;28;20104;-81
2021/12/01 03:30:57;;;;;;;7.82;3.20;;;;;;;8.59;100.00;99246.38;5094059;28;20035;-80
2021/12/01 03:33:23;;;;;;;5.82;3.45;;;;;;;8.59;100.00;99227.13;5094822;28;20035;-79
2021/12/01 03:35:51;;;;;;;5.45;3.08;;;;;;;8.60;100.00;99228.91;5094617;28;20048;-80
2021/12/01 03:38:18;;;;;;;6.53;3.60;;;;;;;8.58;100.00;99215.75;5094579;28;20075;-80
2021/12/01 03:40:45;;;;;;;7.72;4.00;;;;;;;8.55;100.00;99215.69;5095046;28;20044;-80
2021/12/01 03:43:11;;;;;;;6.03;3.30;;;;;;;8.49;100.00;99193.72;5093049;28;20516;-79
2021/12/01 03:45:37;;;;;;;8.48;4.03;;;;;;;8.44;100.00;99196.25;5073837;28;20104;-80
2021/12/01 03:48:03;;;;;;;7.38;3.50;;;;;;;8.42;100.00;99203.16;5073548;28;20052;-82
2021/12/01 03:50:30;;;;;;;7.60;3.90;;;;;;;8.39;100.00;99203.09;5072949;28;20381;-86
2021/12/01 03:52:56;;;;;;;5.82;3.70;;;;;;;8.32;100.00;99169.78;5072668;28;20059;-81
2021/12/01 03:55:22;;;;;;;5.50;3.55;;;;;;;8.27;100.00;99178.44;5072897;28;20040;-80
2021/12/01 03:57:47;;;;;;;7.32;3.35;;;;;;;8.23;100.00;99167.84;5072494;28;20465;-82
2021/12/01 04:00:16;;;;;;;7.13;2.75;;;;;;;8.21;100.00;99165.22;5072174;28;20052;-81
2021/12/01 04:02:42;;;;;;;5.85;3.47;;;;;;;8.21;100.00;99162.59;5072648;28;20072;-80
2021/12/01 04:05:08;;;;;;;6.00;3.90;;;;;;;8.17;100.00;99154.63;5071187;28;20123;-80
2021/12/01 04:07:34;;;;;;;6.00;3.58;;;;;;;8.21;100.00;99156.47;5071887;28;20056;-84
2021/12/01 04:10:01;;;;;;;7.03;3.15;;;;;;;8.17;100.00;99137.19;5073531;28;20051;-82
2021/12/01 04:12:27;;;;;;;7.35;3.50;;;;;;;8.18;100.00;99141.56;5072915;28;20044;-81
2021/12/01 04:14:52;;;;;;;6.07;3.45;;;;;;;8.17;100.00;99117.94;5073776;28;20121;-81
2021/12/01 04:17:18;;;;;;;7.25;4.35;;;;;;;8.17;100.00;99118.84;5070814;28;20691;-80
2021/12/01 04:19:45;;;;;;;10.15;4.82;;;;;;;8.18;100.00;99117.94;5071941;28;20054;-81
2021/12/01 04:22:11;;;;;;;13.57;6.30;;;;;;;8.19;100.00;99101.38;5056671;28;20052;-81
2021/12/01 04:24:36;;;;;;;12.65;6.43;;;;;;;8.16;100.00;99109.19;5072987;28;20048;-80
2021/12/01 04:27:02;;;;;;;12.40;6.63;;;;;;;8.18;100.00;99102.22;5073072;28;20401;-81
2021/12/01 04:29:27;;;;;;;15.30;7.70;;;;;;;8.21;100.00;99104.03;5073606;28;20076;-82
2021/12/01 04:31:54;;;;;;;14.52;7.68;;;;;;;8.18;100.00;99102.22;5072885;28;20044;-82
2021/12/01 04:34:20;;;;;;;14.07;6.88;;;;;;;8.18;100.00;99094.34;5073750;28;20571;-81
2021/12/01 04:36:48;;;;;;;12.38;7.68;;;;;;;8.13;100.00;99087.28;5073182;28;20135;-82
2021/12/01 04:39:15;;;;;;;18.08;9.50;;;;;;;8.07;100.00;99078.44;5073225;28;20516;-82
2021/12/01 04:41:53;;;;;;;14.27;8.23;;;;;;;8.07;100.00;99080.19;5072659;28;20399;-80
2021/12/01 04:44:20;;;;;;;15.77;7.95;;;;;;;8.07;100.00;99075.81;5073335;28;20052;-81
2021/12/01 04:46:48;;;;;;;15.85;7.90;;;;;;;8.06;100.00;99060.97;5072497;28;20071;-81
2021/12/01 04:49:19;;;;;;;17.63;8.85;;;;;;;8.08;100.00;99055.75;5072900;28;20159;-81
2021/12/01 04:51:49;;;;;;;16.63;8.93;;;;;;;8.08;100.00;99045.25;5073262;28;20044;-80
2021/12/01 04:54:15;;;;;;;19.98;9.30;;;;;;;8.07;100.00;99046.09;5072588;28;20638;-82
2021/12/01 04:56:42;;;;;;;18.20;11.02;;;;;;;8.02;100.00;99032.06;5072305;28;20070;-82
2021/12/01 04:59:09;;;;;;;16.20;8.73;;;;;;;8.06;100.00;99052.19;5071719;28;20040;-80
2021/12/01 05:01:37;;;;;;;15.57;8.95;;;;;;;8.03;100.00;99037.31;5072519;28;20048;-81
2021/12/01 05:04:04;;;;;;;17.75;9.93;;;;;;;8.01;100.00;99025.91;5072914;28;20037;-82
2021/12/01 05:06:29;;;;;;;16.67;9.10;;;;;;;8.05;100.00;99030.34;5072663;28;20102;-80
2021/12/01 05:08:54;;;;;;;17.95;9.25;;;;;;;8.05;100.00;99032.97;5072820;28;20037;-81
2021/12/01 05:11:22;;;;;;;11.15;6.25;;;;;;;8.04;100.00;99017.22;5072712;28;20044;-81
2021/12/01 05:13:48;;;;;;;15.77;8.85;;;;;;;8.05;100.00;99013.75;5073880;28;20048;-81
2021/12/01 05:16:13;;;;;;;14.70;7.40;;;;;;;8.07;100.00;99004.16;5073490;28;20245;-80
2021/12/01 05:18:39;;;;;;;13.52;7.00;;;;;;;8.06;100.00;99013.78;5073231;28;20576;-81
2021/12/01 05:21:05;;;;;;;10.95;5.35;;;;;;;8.07;100.00;98989.31;5073410;28;20075;-81
2021/12/01 05:23:30;;;;;;;10.25;6.20;;;;;;;8.09;100.00;98994.56;5074441;28;20059;-82
2021/12/01 05:25:56;;;;;;;13.27;5.97;;;;;;;8.08;100.00;98988.47;5072614;28;20048;-81
2021/12/01 05:28:21;;;;;;;10.50;6.32;;;;;;;8.07;100.00;98985.81;5072397;28;20055;-81
2021/12/01 05:30:52;;;;;;;12.10;6.65;;;;;;;8.07;100.00;98997.16;5079931;28;20092;-81
2021/12/01 05:33:17;;;;;;;;;;;;;;;8.04;100.00;98993.63;5080314;28;20679;-82
2021/12/01 05:35:46;;;;;;;11.18;5.97;;;;;;;8.04;100.00;98994.50;5086096;28;19916;-81
2021/12/01 05:38:11;;;;;;;11.43;6.35;;;;;;;8.00;100.00;99000.56;5076266;28;20374;-82
2021/12/01 05:40:50;;;;;;;10.98;5.68;;;;;;;8.04;100.00;99001.50;5082868;28;20097;-80
2021/12/01 05:43:16;;;;;;;8.85;5.80;;;;;;;8.03;100.00;99004.97;5096158;28;20040;-81
2021/12/01 05:45:41;;;;;;;8.40;5.25;;;;;;;8.39;100.00;99003.78;5096648;28;20051;-81
2021/12/01 05:48:07;;;;;;;8.60;5.38;;;;;;;8.39;100.00;98996.81;5096371;28;20105;-81
2021/12/01 05:50:34;;;;;;;7.13;4.50;;;;;;;8.30;100.00;98982.66;5096240;28;20051;-81
2021/12/01 05:52:59;;;;;;;6.70;3.78;;;;;;;8.22;100.00;98991.31;5096484;28;20142;-81
2021/12/01 05:55:25;;;;;;;8.52;4.40;;;;;;;8.24;100.00;98984.34;5096481;28;20522;-81
2021/12/01 05:57:50;;;;;;;6.00;3.85;;;;;;;8.20;100.00;98979.00;5092696;28;20040;-81
2021/12/01 06:00:16;;;;;;;6.88;4.43;;;;;;;8.17;100.00;98982.50;5074764;28;20044;-83
2021/12/01 06:02:43;;;;;;;6.50;4.28;;;;;;;8.19;100.00;98975.53;5074745;28;20078;-81
2021/12/01 06:05:09;;;;;;;6.43;4.03;;;;;;;8.22;100.00;98961.59;5074969;28;20514;-80
2021/12/01 06:07:34;;;;;;;6.88;3.75;;;;;;;8.24;100.00;98975.59;5074767;28;20060;-81
2021/12/01 06:10:02;;;;;;;6.55;4.25;;;;;;;8.24;100.00;98954.63;5086473;28;20044;-81
2021/12/01 06:12:28;;;;;;;8.20;4.43;;;;;;;8.26;100.00;98955.50;5094634;28;20139;-81
2021/12/01 06:14:54;;;;;;;7.85;4.18;;;;;;;8.29;100.00;98952.06;5093856;28;20040;-83
2021/12/01 06:17:20;;;;;;;7.22;5.20;;;;;;;8.26;100.00;98938.06;5093419;28;20040;-81
2021/12/01 06:19:45;;;;;;;6.28;4.55;;;;;;;8.32;100.00;98949.47;5093909;28;20681;-82
2021/12/01 06:22:19;;;;;;;8.75;4.97;;;;;;;8.31;100.00;98938.09;5095316;28;20559;-83
2021/12/01 06:24:45;;;;;;;7.82;4.40;;;;;;;8.41;100.00;98933.88;5076511;28;20129;-82
2021/12/01 06:27:12;;;;;;;7.35;4.03;;;;;;;8.40;100.00;98934.72;5074031;28;20694;-82
2021/12/01 06:29:38;;;;;;;8.32;4.30;;;;;;;8.40;100.00;98930.34;5090731;28;20086;-82
2021/12/01 06:32:06;;;;;;;7.50;4.13;;;;;;;8.37;100.00;98925.06;5093773;28;20052;-83
2021/12/01 06:34:34;;;;;;;7.18;4.50;;;;;;;8.41;100.00;98926.00;5081237;28;20641;-82
2021/12/01 06:37:00;;;;;;;8.27;4.38;;;;;;;8.37;100.00;98927.69;5074071;28;20048;-82
2021/12/01 06:39:25;;;;;;;6.97;4.40;;;;;;;8.39;100.00;98922.47;5077932;28;20369;-82
2021/12/01 06:41:54;;;;;;;6.35;4.00;;;;;;;8.38;100.00;98915.47;5093603;28;20036;-81
2021/12/01 06:44:20;;;;;;;6.07;4.10;;;;;;;8.40;100.00;98905.88;5094269;28;20044;-81
2021/12/01 06:46:48;;;;;;;7.07;3.95;;;;;;;8.37;100.00;98890.97;5094305;28;20040;-82
2021/12/01 06:49:13;;;;;;;7.32;3.70;;;;;;;8.42;100.00;98888.41;5093508;28;20044;-82
2021/12/01 06:51:39;;;;;;;6.25;3.70;;;;;;;8.46;100.00;98899.88;5093997;28;20066;-82
2021/12/01 06:54:07;;;;;;;6.15;4.07;;;;;;;8.44;100.00;98892.88;5093383;28;20048;-82
2021/12/01 06:56:32;;;;;;;6.75;3.50;;;;;;;8.42;100.00;98885.78;5093505;28;20097;-82
2021/12/01 06:58:57;;;;;;;6.45;3.50;;;;;;;8.42;100.00;98884.06;5093760;28;20040;-82
2021/12/01 07:01:26;;;;;;;6.10;3.50;;;;;;;8.41;100.00;98881.44;5095198;28;20083;-82
2021/12/01 07:03:52;;;;;;;5.68;3.47;;;;;;;8.44;100.00;98877.13;5094917;28;20044;-82
2021/12/01 07:06:17;;;;;;;5.95;3.10;;;;;;;8.43;100.00;98877.06;5053707;28;1129414;-82
2021/12/01 07:08:43;;;;;;;9.27;3.40;;;;;;;8.46;100.00;98871.91;5092952;28;20051;-82
2021/12/01 07:11:09;;;;;;;9.10;3.60;;;;;;;8.49;100.00;98865.81;5087380;28;20119;-82
2021/12/01 07:13:35;;;;;;;9.43;3.60;;;;;;;8.48;100.00;98854.44;5074541;28;20134;-82
2021/12/01 07:16:01;;;;;;;9.10;3.53;;;;;;;8.49;100.00;98863.19;5073716;28;20148;-82
2021/12/01 07:18:27;;;;;;;10.52;4.10;;;;;;;8.50;100.00;98857.97;5081638;28;20075;-82
2021/12/01 07:20:54;;;;;;;9.93;4.07;;;;;;;8.47;100.00;98844.81;5091223;28;20417;-83
2021/12/01 07:23:19;;;;;;;8.68;4.28;;;;;;;8.49;100.00;98848.34;5094636;28;20130;-83
2021/12/01 07:25:45;;;;;;;10.70;3.20;;;;;;;8.49;100.00;98839.59;5094129;28;20533;-83
2021/12/01 07:28:10;;;;;;;10.30;3.40;;;;;;;8.52;100.00;98837.88;5093444;28;20036;-83
2021/12/01 07:30:37;;;;;;;16.70;7.35;;;;;;;8.50;100.00;98821.25;5094717;28;20040;-83
2021/12/01 07:33:03;;;;;;;11.90;3.28;;;;;;;8.51;100.00;98838.72;5073753;28;20051;-83
2021/12/01 07:35:29;;;;;;;8.57;3.20;;;;;;;8.53;100.00;98829.16;5074435;28;20139;-83
2021/12/01 07:37:54;;;;;;;9.75;3.75;;;;;;;8.53;100.00;98821.28;5088777;28;20083;-82
2021/12/01 07:40:22;;;;;;;8.15;3.33;;;;;;;8.52;100.00;98830.00;5077107;28;20040;-81
2021/12/01 07:42:47;;;;;;;10.00;3.10;;;;;;;8.51;100.00;98817.75;5091756;28;20040;-82
2021/12/01 07:45:12;;;;;;;14.15;3.03;;;;;;;8.56;100.00;98838.78;5089153;28;20364;-81
2021/12/01 07:47:39;;;;;;;12.20;3.63;;;;;;;8.57;100.00;98841.41;5093463;28;20043;-82
2021/12/01 07:50:07;;;;;;;13.30;3.05;;;;;;;8.56;100.00;98841.41;5092742;28;20043;-81
2021/12/01 07:52:35;;;;;;;9.18;2.80;;;;;;;8.52;100.00;98839.63;5079964;28;20062;-80
2021/12/01 07:55:00;;;;;;;11.18;2.88;;;;;;;8.55;100.00;98853.66;5091304;28;20039;-81
2021/12/01 07:57:25;;;;;;;8.88;2.45;;;;;;;8.48;100.00;98843.94;5091984;28;20040;-81
2021/12/01 07:59:51;;;;;;;11.93;2.47;;;;;;;8.47;100.00;98841.28;5092238;28;20373;-81
2021/12/01 08:02:16;;;;;;;13.70;3.60;;;;;;;8.47;100.00;98836.03;5089824;28;20468;-81
2021/12/01 08:04:42;;;;;;;14.68;2.97;;;;;;;8.55;100.00;98851.03;5091252;28;20044;-80
2021/12/01 08:07:08;;;;;;;12.48;2.40;;;;;;;8.49;100.00;98852.72;5072330;28;20037;-80
2021/12/01 08:09:33;;;;;;;15.15;2.78;;;;;;;8.52;100.00;98864.09;5073125;28;20048;-81
2021/12/01 08:12:00;;;;;;;10.57;2.63;;;;;;;8.36;100.00;98847.28;5074979;28;20047;-82
2021/12/01 08:14:28;;;;;;;10.70;1.48;;;;;;;8.14;100.00;98855.69;5095230;28;20077;-81
2021/12/01 08:16:54;;;;;;;9.02;1.73;;;;;;;8.07;100.00;98845.13;5075405;28;20568;-81
2021/12/01 08:19:21;;;;;;;10.38;2.08;;;;;;;8.00;100.00;98838.06;5073539;28;20044;-82
2021/12/01 08:21:50;;;;;;;6.68;1.33;;;;;;;7.91;100.00;98849.28;5073116;28;20040;-80
2021/12/01 08:24:17;;;;;;;5.97;1.10;;;;;;;7.84;100.00;98847.41;5080216;28;20051;-80
2021/12/01 08:26:44;;;;;;;9.35;1.38;;;;;;;7.84;100.00;98842.19;5093477;28;20641;-80
2021/12/01 08:29:11;;;;;;;9.35;1.70;;;;;;;7.82;100.00;98849.16;5074426;28;20044;-80
2021/12/01 08:31:45;;;;;;;15.32;3.15;;;;;;;7.84;100.00;98855.28;5072702;28;20052;-79
2021/12/01 08:34:11;;;;;;;11.57;1.55;;;;;;;7.84;100.00;98852.66;5072660;28;20033;-80
2021/12/01 08:36:37;;;;;;;11.10;1.48;;;;;;;7.87;100.00;98852.69;5056274;28;20048;-81
2021/12/01 08:39:04;;;;;;;12.20;1.60;;;;;;;7.86;100.00;98856.22;5073747;28;20114;-82
2021/12/01 08:41:31;;;;;;;10.15;1.83;;;;;;;7.91;100.00;98864.13;5072178;28;20151;-80
2021/12/01 08:43:56;;;;;;;8.40;1.50;;;;;;;7.95;100.00;98855.44;5078500;28;20062;-81
2021/12/01 08:46:22;;;;;;;10.07;1.45;;;;;;;7.97;100.00;98877.34;5093328;28;20040;-82
2021/12/01 08:48:47;;;;;;;6.63;1.35;;;;;;;8.01;100.00;98876.50;5076945;28;20048;-81
2021/12/01 08:51:15;;;;;;;9.35;1.48;;;;;;;8.00;100.00;98884.34;5072273;28;20222;-82
2021/12/01 08:53:48;;;;;;;10.70;1.33;;;;;;;7.99;100.00;98890.47;5079366;28;20074;-81
2021/12/01 08:56:14;;;;;;;10.38;1.40;;;;;;;7.97;100.00;98885.19;5087291;28;20048;-81
2021/12/01 08:58:40;;;;;;;7.82;1.20;;;;;;;8.00;100.00;98892.19;5092033;28;20037;-81
2021/12/01 09:01:06;;;;;;;11.27;1.92;;;;;;;8.07;100.00;98892.31;5092359;28;20534;-82
2021/12/01 09:03:32;;;;;;;11.27;1.85;;;;;;;8.14;100.00;98901.16;5090632;28;20078;-81
2021/12/01 09:05:57;;;;;;;9.80;1.60;;;;;;;8.07;100.00;98913.28;5094090;28;20036;-80
2021/12/01 09:08:24;;;;;;;7.85;1.48;;;;;;;8.12;100.00;98920.34;5096730;28;20105;-81
2021/12/01 09:10:56;;;;;;;9.32;1.42;;;;;;;8.10;100.00;98901.97;5098034;28;20112;-82
2021/12/01 09:13:27;;;;;;;8.15;1.30;;;;;;;7.96;100.00;98909.63;5096335;28;20044;-82
2021/12/01 09:15:53;;;;;;;3.78;0.80;;;;;;;7.99;100.00;98906.19;5080298;28;20080;-81
2021/12/01 09:18:20;;;;;;;8.20;1.10;;;;;;;7.98;100.00;98917.50;5094958;28;20569;-81
2021/12/01 09:20:51;;;;;;;8.63;1.60;;;;;;;7.94;100.00;98921.84;5075821;28;20043;-81
2021/12/01 09:23:17;;;;;;;;;;;;;;;7.96;100.00;98927.09;5075975;28;20512;-82
2021/12/01 09:25:43;;;;;;;6.43;1.15;;;;;;;7.98;100.00;98934.13;5074848;28;19934;-81
2021/12/01 09:28:10;;;;;;;7.25;1.27;;;;;;;7.97;100.00;98935.00;5083038;28;20135;-82
2021/12/01 09:30:40;;;;;;;8.18;1.05;;;;;;;7.79;100.00;98937.31;5096477;28;20044;-82
2021/12/01 09:33:05;;;;;;;6.78;1.33;;;;;;;7.57;100.00;98950.03;5095432;28;20051;-83
2021/12/01 09:35:31;;;;;;;10.43;1.60;;;;;;;7.45;100.00;98957.69;5094644;28;20040;-82
2021/12/01 09:37:56;;;;;;;8.00;1.50;;;;;;;7.43;100.00;98955.03;5096070;28;20052;-80
2021/12/01 09:40:25;;;;;;;10.73;1.50;;;;;;;7.41;100.00;98958.47;5079304;28;20044;-81
2021/12/01 09:42:52;;;;;;;8.40;1.45;;;;;;;7.34;100.00;98960.97;5096343;28;20067;-83
2021/12/01 09:45:20;;;;;;;8.57;1.23;;;;;;;7.31;100.00;98958.28;5096280;28;20483;-81
2021/12/01 09:47:47;;;;;;;9.48;1.50;;;;;;;7.39;100.00;98953.19;5079802;28;20496;-81
2021/12/01 09:50:18;;;;;;;9.60;1.40;;;;;;;7.41;100.00;98954.13;5074117;28;20516;-81
2021/12/01 09:52:44;;;;;;;5.78;1.48;;;;;;;7.45;100.00;98958.56;5075113;28;20045;-81
2021/12/01 09:55:12;;;;;;;10.68;1.55;;;;;;;7.53;100.00;98964.81;5074386;28;20134;-81
2021/12/01 09:57:51;;;;;;;11.07;1.58;;;;;;;7.61;100.00;98961.44;5076439;28;20044;-81
2021/12/01 10:00:17;;;;;;;7.50;1.50;;;;;;;7.76;100.00;98966.94;5075945;28;20668;-81
2021/12/01 10:02:43;;;;;;;9.43;1.63;;;;;;;7.72;100.00;98968.66;5075932;28;20045;-81
2021/12/01 10:05:08;;;;;;;9.18;1.85;;;;;;;7.67;100.00;98972.91;5074756;28;20045;-81
2021/12/01 10:07:34;;;;;;;2.70;1.10;;;;;;;7.60;100.00;98981.53;5075157;28;20036;-81
2021/12/01 10:10:07;;;;;;;7.80;2.00;;;;;;;7.59;100.00;98966.66;5084351;28;20064;-81
2021/12/01 10:12:47;;;;;;;6.70;1.20;;;;;;;7.53;100.00;98983.13;5081143;28;20519;-81
2021/12/01 10:15:13;;;;;;;;;;;;;;;7.53;100.00;98980.50;5079023;28;20040;-81
2021/12/01 10:17:41;;;;;;;12.65;1.80;;;;;;;7.50;100.00;98977.88;5095239;28;20257;-81
2021/12/01 10:20:18;;;;;;;11.20;1.90;;;;;;;7.54;100.00;98963.97;5096365;28;20075;-82
2021/12/01 10:23:11;;;;;;;7.45;1.30;;;;;;;7.68;100.00;98960.72;5096276;28;20075;-81
2021/12/01 10:25:37;;;;;;;6.68;1.30;;;;;;;7.86;100.00;98963.66;5075576;28;20048;-81
2021/12/01 10:28:02;;;;;;;8.52;1.50;;;;;;;7.96;100.00;98955.94;5083293;28;20089;-81
2021/12/01 10:30:40;;;;;;;7.50;1.60;;;;;;;7.87;100.00;98957.53;5095156;28;20050;-80
2021/12/01 10:33:12;;;;;;;7.88;1.50;;;;;;;7.87;100.00;98956.66;5094238;28;20039;-80
2021/12/01 10:35:38;;;;;;;10.57;1.58;;;;;;;7.87;100.00;98962.78;5094275;28;20044;-80
2021/12/01 10:38:06;;;;;;;8.15;1.25;;;;;;;7.94;100.00;98962.88;5094125;28;20085;-80
2021/12/01 10:40:32;;;;;;;8.07;1.70;;;;;;;7.96;100.00;98950.69;5076961;28;20064;-80
2021/12/01 10:43:02;;;;;;;10.40;1.50;;;;;;;8.03;100.00;98952.53;5074289;28;20052;-80
2021/12/01 10:45:32;;;;;;;9.77;1.42;;;;;;;8.01;100.00;98946.41;5078404;28;20048;-80
2021/12/01 10:47:59;;;;;;;8.43;1.60;;;;;;;7.99;100.00;98949.00;5089291;28;20144;-80
2021/12/01 10:50:29;;;;;;;5.30;1.10;;;;;;;8.04;100.00;98947.31;5076368;28;20121;-80
2021/12/01 10:53:15;;;;;;;;;;;;;;;8.07;100.00;98949.13;5094619;28;20079;-80
2021/12/01 10:55:41;;;;;;;;;;;;;;;8.20;100.00;98955.41;5094205;28;19951;-81
2021/12/01 10:58:06;;;;;;;;;;;;;;;8.14;100.00;98956.22;5094389;28;20560;-78
2021/12/01 11:00:38;;;;;;;;;;;;;;;8.32;100.00;98957.34;5095009;28;19916;-81
2021/12/01 11:03:24;;;;;;;;;;;;;;;8.42;100.00;98978.50;5095303;28;19942;-80
2021/12/01 11:06:19;;;;;;;;;;;;;;;8.47;100.00;98969.81;5094784;28;20267;-81
2021/12/01 11:08:46;;;;;;;;;;;;;;;8.49;100.00;98973.38;5092750;28;20002;-81
2021/12/01 11:11:15;;;;;;;;;;;;;;;8.47;100.00;98977.69;5094823;28;20329;-81
2021/12/01 11:13:46;;;;;;;;;;;;;;;8.55;100.00;98982.19;5094854;28;19916;-81
2021/12/01 11:16:13;;;;;;;;;;;;;;;8.50;100.00;98988.22;5095263;28;19916;-81
2021/12/01 11:18:40;;;;;;;;;;;;;;;8.55;100.00;98995.31;5093232;28;19942;-79
2021/12/01 11:21:17;;;;;;;;;;;;;;;8.58;100.00;99003.22;5073635;28;19970;-78
2021/12/01 11:23:43;;;;;;;;;;;;;;;8.56;100.00;99007.59;5074217;28;19951;-79
2021/12/01 11:26:09;;;;;;;;;;;;;;;8.42;100.00;99002.09;5090278;28;20168;-79
2021/12/01 11:28:36;;;;;;;;;;;;;;;8.42;100.00;99014.31;5093723;28;19977;-79
2021/12/01 11:31:05;;;;;;;;;;;;;;;8.44;100.00;99012.66;5094822;28;20255;-79
2021/12/01 11:33:31;;;;;;;;;;;;;;;8.44;100.00;99017.91;5092735;28;19916;-79
2021/12/01 11:35:58;;;;;;;;;;;;;;;8.43;100.00;99023.97;5093937;28;20562;-78
2021/12/01 11:38:23;;;;;;;;;;;;;;;8.33;100.00;99020.31;5093976;28;20217;-81
2021/12/01 11:40:49;;;;;;;;;;;;;;;8.34;100.00;99021.19;5092874;28;19941;-81
2021/12/01 11:43:16;;;;;;;;;;;;;;;8.31;100.00;99016.75;5093100;28;19920;-77